sensor_id;sensor_type;location;lat;lon;timestamp;P1;durP1;ratioP1;P2;durP2;ratioP2
18716;SDS011;9487;50.892;6.906;2023-05-10T00:01:17;11.10;;;10.00;;
18716;SDS011;9487;50.892;6.906;2023-05-10T00:03:44;10.90;;;10.00;;
18716;SDS011;9487;50.892;6.906;2023-05-10T00:06:12;11.23;;;10.23;;
18716;SDS011;9487;50.892;6.906;2023-05-10T00:08:38;10.87;;;9.87;;
18716;SDS011;9487;50.892;6.906;2023-05-10T00:11:06;11.63;;;10.53;;
18716;SDS011;9487;50.892;6.906;2023-05-10T00:13:32;11.53;;;10.43;;
18716;SDS011;9487;50.892;6.906;2023-05-10T00:15:59;12.23;;;11.03;;
18716;SDS011;9487;50.892;6.906;2023-05-10T00:18:26;12.40;;;10.70;;
18716;SDS011;9487;50.892;6.906;2023-05-10T00:20:53;13.50;;;11.47;;
18716;SDS011;9487;50.892;6.906;2023-05-10T00:23:21;12.60;;;11.30;;
18716;SDS011;9487;50.892;6.906;2023-05-10T00:25:48;12.80;;;11.60;;
18716;SDS011;9487;50.892;6.906;2023-05-10T00:28:16;12.93;;;11.63;;
18716;SDS011;9487;50.892;6.906;2023-05-10T00:30:43;13.07;;;11.77;;
18716;SDS011;9487;50.892;6.906;2023-05-10T00:33:10;12.57;;;11.37;;
18716;SDS011;9487;50.892;6.906;2023-05-10T00:35:37;13.77;;;12.37;;
18716;SDS011;9487;50.892;6.906;2023-05-10T00:38:04;14.20;;;12.80;;
18716;SDS011;9487;50.892;6.906;2023-05-10T00:40:33;13.80;;;12.40;;
18716;SDS011;9487;50.892;6.906;2023-05-10T00:43:02;15.30;;;13.63;;
18716;SDS011;9487;50.892;6.906;2023-05-10T00:45:28;15.07;;;13.50;;
18716;SDS011;9487;50.892;6.906;2023-05-10T00:47:56;15.20;;;13.70;;
18716;SDS011;9487;50.892;6.906;2023-05-10T00:50:24;16.47;;;14.87;;
18716;SDS011;9487;50.892;6.906;2023-05-10T00:52:52;16.37;;;14.77;;
18716;SDS011;9487;50.892;6.906;2023-05-10T00:55:19;16.87;;;15.13;;
18716;SDS011;9487;50.892;6.906;2023-05-10T00:57:48;16.50;;;14.80;;
18716;SDS011;9487;50.892;6.906;2023-05-10T01:00:16;17.63;;;15.83;;
18716;SDS011;9487;50.892;6.906;2023-05-10T01:02:44;16.87;;;15.07;;
18716;SDS011;9487;50.892;6.906;2023-05-10T01:05:11;17.13;;;15.33;;
18716;SDS011;9487;50.892;6.906;2023-05-10T01:07:38;18.90;;;16.90;;
18716;SDS011;9487;50.892;6.906;2023-05-10T01:10:07;17.30;;;15.50;;
18716;SDS011;9487;50.892;6.906;2023-05-10T01:12:35;17.03;;;15.33;;
18716;SDS011;9487;50.892;6.906;2023-05-10T01:15:06;16.83;;;15.13;;
18716;SDS011;9487;50.892;6.906;2023-05-10T01:17:34;17.23;;;15.40;;
18716;SDS011;9487;50.892;6.906;2023-05-10T01:20:04;17.87;;;15.97;;
18716;SDS011;9487;50.892;6.906;2023-05-10T01:28:42;17.40;;;15.60;;
18716;SDS011;9487;50.892;6.906;2023-05-10T01:34:47;16.13;;;14.40;;
18716;SDS011;9487;50.892;6.906;2023-05-10T01:37:23;14.07;;;12.63;;
18716;SDS011;9487;50.892;6.906;2023-05-10T01:39:56;14.23;;;12.53;;
18716;SDS011;9487;50.892;6.906;2023-05-10T01:42:29;12.33;;;11.13;;
18716;SDS011;9487;50.892;6.906;2023-05-10T01:45:05;12.70;;;11.40;;
18716;SDS011;9487;50.892;6.906;2023-05-10T01:47:38;11.97;;;10.77;;
18716;SDS011;9487;50.892;6.906;2023-05-10T01:50:10;12.30;;;11.07;;
18716;SDS011;9487;50.892;6.906;2023-05-10T01:52:44;11.63;;;10.43;;
18716;SDS011;9487;50.892;6.906;2023-05-10T01:55:15;11.67;;;10.57;;
18716;SDS011;9487;50.892;6.906;2023-05-10T01:57:43;11.03;;;9.90;;
18716;SDS011;9487;50.892;6.906;2023-05-10T02:00:12;11.13;;;10.03;;
18716;SDS011;9487;50.892;6.906;2023-05-10T02:02:44;11.17;;;10.07;;
18716;SDS011;9487;50.892;6.906;2023-05-10T02:05:14;11.47;;;10.40;;
18716;SDS011;9487;50.892;6.906;2023-05-10T02:07:42;11.17;;;10.07;;
18716;SDS011;9487;50.892;6.906;2023-05-10T02:10:09;10.30;;;9.20;;
18716;SDS011;9487;50.892;6.906;2023-05-10T02:12:44;11.73;;;10.53;;
18716;SDS011;9487;50.892;6.906;2023-05-10T02:15:16;11.30;;;10.10;;
18716;SDS011;9487;50.892;6.906;2023-05-10T02:17:47;12.10;;;10.80;;
18716;SDS011;9487;50.892;6.906;2023-05-10T02:20:16;13.77;;;10.90;;
18716;SDS011;9487;50.892;6.906;2023-05-10T02:22:45;11.53;;;10.33;;
18716;SDS011;9487;50.892;6.906;2023-05-10T02:25:14;12.83;;;11.60;;
18716;SDS011;9487;50.892;6.906;2023-05-10T02:27:42;11.23;;;10.13;;
18716;SDS011;9487;50.892;6.906;2023-05-10T02:30:12;12.93;;;11.73;;
18716;SDS011;9487;50.892;6.906;2023-05-10T02:32:40;12.00;;;10.77;;
18716;SDS011;9487;50.892;6.906;2023-05-10T02:35:09;12.50;;;11.30;;
18716;SDS011;9487;50.892;6.906;2023-05-10T02:37:39;14.20;;;11.60;;
18716;SDS011;9487;50.892;6.906;2023-05-10T02:40:07;12.83;;;11.53;;
18716;SDS011;9487;50.892;6.906;2023-05-10T02:42:35;13.13;;;11.83;;
18716;SDS011;9487;50.892;6.906;2023-05-10T02:45:07;12.93;;;11.63;;
18716;SDS011;9487;50.892;6.906;2023-05-10T02:47:37;12.87;;;11.37;;
18716;SDS011;9487;50.892;6.906;2023-05-10T02:50:05;14.30;;;11.70;;
18716;SDS011;9487;50.892;6.906;2023-05-10T02:52:36;14.70;;;12.90;;
18716;SDS011;9487;50.892;6.906;2023-05-10T02:55:09;15.13;;;13.53;;
18716;SDS011;9487;50.892;6.906;2023-05-10T02:57:41;14.93;;;13.43;;
18716;SDS011;9487;50.892;6.906;2023-05-10T03:00:10;14.67;;;12.67;;
18716;SDS011;9487;50.892;6.906;2023-05-10T03:02:38;14.37;;;12.83;;
18716;SDS011;9487;50.892;6.906;2023-05-10T03:05:05;13.97;;;12.43;;
18716;SDS011;9487;50.892;6.906;2023-05-10T03:07:32;15.73;;;12.50;;
18716;SDS011;9487;50.892;6.906;2023-05-10T03:10:01;16.57;;;13.63;;
18716;SDS011;9487;50.892;6.906;2023-05-10T03:12:31;15.47;;;13.50;;
18716;SDS011;9487;50.892;6.906;2023-05-10T03:15:09;15.83;;;13.37;;
18716;SDS011;9487;50.892;6.906;2023-05-10T03:17:45;15.27;;;12.47;;
18716;SDS011;9487;50.892;6.906;2023-05-10T03:20:20;14.23;;;12.73;;
18716;SDS011;9487;50.892;6.906;2023-05-10T03:22:51;14.10;;;12.20;;
18716;SDS011;9487;50.892;6.906;2023-05-10T03:25:24;15.33;;;12.27;;
18716;SDS011;9487;50.892;6.906;2023-05-10T03:27:52;13.23;;;11.83;;
18716;SDS011;9487;50.892;6.906;2023-05-10T03:30:20;12.20;;;10.87;;
18716;SDS011;9487;50.892;6.906;2023-05-10T03:32:47;12.93;;;11.43;;
18716;SDS011;9487;50.892;6.906;2023-05-10T03:35:14;11.80;;;10.50;;
18716;SDS011;9487;50.892;6.906;2023-05-10T03:37:41;13.43;;;10.73;;
18716;SDS011;9487;50.892;6.906;2023-05-10T03:40:09;12.97;;;10.70;;
18716;SDS011;9487;50.892;6.906;2023-05-10T03:42:38;10.87;;;9.77;;
18716;SDS011;9487;50.892;6.906;2023-05-10T03:45:07;12.13;;;10.80;;
18716;SDS011;9487;50.892;6.906;2023-05-10T03:47:35;12.57;;;11.27;;
18716;SDS011;9487;50.892;6.906;2023-05-10T03:50:02;11.53;;;10.40;;
18716;SDS011;9487;50.892;6.906;2023-05-10T03:52:29;13.70;;;10.27;;
18716;SDS011;9487;50.892;6.906;2023-05-10T03:54:56;12.17;;;10.53;;
18716;SDS011;9487;50.892;6.906;2023-05-10T03:57:22;11.13;;;9.60;;
18716;SDS011;9487;50.892;6.906;2023-05-10T03:59:51;11.30;;;10.20;;
18716;SDS011;9487;50.892;6.906;2023-05-10T04:02:18;12.50;;;10.93;;
18716;SDS011;9487;50.892;6.906;2023-05-10T04:04:45;11.43;;;10.33;;
18716;SDS011;9487;50.892;6.906;2023-05-10T04:07:13;13.23;;;11.83;;
18716;SDS011;9487;50.892;6.906;2023-05-10T04:09:40;13.83;;;12.07;;
18716;SDS011;9487;50.892;6.906;2023-05-10T04:12:10;14.03;;;12.57;;
18716;SDS011;9487;50.892;6.906;2023-05-10T04:14:36;15.13;;;12.30;;
18716;SDS011;9487;50.892;6.906;2023-05-10T04:17:06;13.90;;;12.50;;
18716;SDS011;9487;50.892;6.906;2023-05-10T04:19:33;16.07;;;14.37;;
18716;SDS011;9487;50.892;6.906;2023-05-10T04:22:01;16.97;;;14.80;;
18716;SDS011;9487;50.892;6.906;2023-05-10T04:24:28;18.87;;;15.47;;
18716;SDS011;9487;50.892;6.906;2023-05-10T04:26:55;17.77;;;15.33;;
18716;SDS011;9487;50.892;6.906;2023-05-10T04:29:22;16.13;;;14.53;;
18716;SDS011;9487;50.892;6.906;2023-05-10T04:31:49;17.77;;;15.67;;
18716;SDS011;9487;50.892;6.906;2023-05-10T04:34:18;17.90;;;15.97;;
18716;SDS011;9487;50.892;6.906;2023-05-10T04:36:46;18.00;;;16.10;;
18716;SDS011;9487;50.892;6.906;2023-05-10T04:39:13;19.00;;;16.47;;
18716;SDS011;9487;50.892;6.906;2023-05-10T04:41:41;17.63;;;15.83;;
18716;SDS011;9487;50.892;6.906;2023-05-10T04:44:11;19.10;;;17.00;;
18716;SDS011;9487;50.892;6.906;2023-05-10T04:46:38;19.13;;;16.17;;
18716;SDS011;9487;50.892;6.906;2023-05-10T04:49:06;18.57;;;16.03;;
18716;SDS011;9487;50.892;6.906;2023-05-10T04:51:36;18.00;;;16.10;;
18716;SDS011;9487;50.892;6.906;2023-05-10T04:54:02;19.27;;;16.40;;
18716;SDS011;9487;50.892;6.906;2023-05-10T04:56:31;20.20;;;16.43;;
18716;SDS011;9487;50.892;6.906;2023-05-10T04:58:58;17.90;;;16.00;;
18716;SDS011;9487;50.892;6.906;2023-05-10T05:01:26;21.83;;;17.00;;
18716;SDS011;9487;50.892;6.906;2023-05-10T05:03:54;17.90;;;15.90;;
18716;SDS011;9487;50.892;6.906;2023-05-10T05:06:20;18.30;;;16.23;;
18716;SDS011;9487;50.892;6.906;2023-05-10T05:08:49;20.10;;;17.53;;
18716;SDS011;9487;50.892;6.906;2023-05-10T05:11:16;20.73;;;18.03;;
18716;SDS011;9487;50.892;6.906;2023-05-10T05:13:43;22.17;;;17.53;;
18716;SDS011;9487;50.892;6.906;2023-05-10T05:16:11;19.93;;;15.70;;
18716;SDS011;9487;50.892;6.906;2023-05-10T05:18:38;20.80;;;16.73;;
18716;SDS011;9487;50.892;6.906;2023-05-10T05:21:13;20.60;;;16.03;;
18716;SDS011;9487;50.892;6.906;2023-05-10T05:23:41;19.07;;;16.70;;
18716;SDS011;9487;50.892;6.906;2023-05-10T05:26:09;21.53;;;16.67;;
18716;SDS011;9487;50.892;6.906;2023-05-10T05:28:35;20.23;;;17.43;;
18716;SDS011;9487;50.892;6.906;2023-05-10T05:31:02;22.27;;;15.87;;
18716;SDS011;9487;50.892;6.906;2023-05-10T05:33:29;23.30;;;16.20;;
18716;SDS011;9487;50.892;6.906;2023-05-10T05:35:56;20.10;;;16.97;;
18716;SDS011;9487;50.892;6.906;2023-05-10T05:38:23;20.90;;;16.43;;
18716;SDS011;9487;50.892;6.906;2023-05-10T05:40:50;19.07;;;17.00;;
18716;SDS011;9487;50.892;6.906;2023-05-10T05:43:18;21.97;;;16.40;;
18716;SDS011;9487;50.892;6.906;2023-05-10T05:45:44;20.57;;;16.63;;
18716;SDS011;9487;50.892;6.906;2023-05-10T05:48:11;21.33;;;17.43;;
18716;SDS011;9487;50.892;6.906;2023-05-10T05:50:38;21.20;;;16.63;;
18716;SDS011;9487;50.892;6.906;2023-05-10T05:53:05;23.90;;;17.60;;
18716;SDS011;9487;50.892;6.906;2023-05-10T05:55:32;24.93;;;17.57;;
18716;SDS011;9487;50.892;6.906;2023-05-10T05:58:00;17.77;;;15.73;;
18716;SDS011;9487;50.892;6.906;2023-05-10T06:00:28;19.53;;;16.27;;
18716;SDS011;9487;50.892;6.906;2023-05-10T06:02:55;19.50;;;16.30;;
18716;SDS011;9487;50.892;6.906;2023-05-10T06:05:22;22.07;;;17.77;;
18716;SDS011;9487;50.892;6.906;2023-05-10T06:07:49;20.97;;;16.80;;
18716;SDS011;9487;50.892;6.906;2023-05-10T06:10:16;20.70;;;17.00;;
18716;SDS011;9487;50.892;6.906;2023-05-10T06:12:43;20.73;;;16.37;;
18716;SDS011;9487;50.892;6.906;2023-05-10T06:15:10;21.97;;;16.27;;
18716;SDS011;9487;50.892;6.906;2023-05-10T06:17:38;20.70;;;15.90;;
18716;SDS011;9487;50.892;6.906;2023-05-10T06:20:06;17.70;;;15.70;;
18716;SDS011;9487;50.892;6.906;2023-05-10T06:22:33;24.03;;;16.63;;
18716;SDS011;9487;50.892;6.906;2023-05-10T06:25:02;18.00;;;15.90;;
18716;SDS011;9487;50.892;6.906;2023-05-10T06:27:29;19.10;;;15.93;;
18716;SDS011;9487;50.892;6.906;2023-05-10T06:29:56;21.33;;;16.37;;
18716;SDS011;9487;50.892;6.906;2023-05-10T06:32:24;17.83;;;14.77;;
18716;SDS011;9487;50.892;6.906;2023-05-10T06:34:52;18.00;;;14.93;;
18716;SDS011;9487;50.892;6.906;2023-05-10T06:37:19;21.17;;;15.90;;
18716;SDS011;9487;50.892;6.906;2023-05-10T06:39:46;23.20;;;19.90;;
18716;SDS011;9487;50.892;6.906;2023-05-10T06:42:13;19.03;;;15.67;;
18716;SDS011;9487;50.892;6.906;2023-05-10T06:44:40;23.03;;;18.37;;
18716;SDS011;9487;50.892;6.906;2023-05-10T06:47:08;20.07;;;15.97;;
18716;SDS011;9487;50.892;6.906;2023-05-10T06:49:35;18.43;;;14.10;;
18716;SDS011;9487;50.892;6.906;2023-05-10T06:52:03;21.00;;;15.20;;
18716;SDS011;9487;50.892;6.906;2023-05-10T06:54:30;20.37;;;15.37;;
18716;SDS011;9487;50.892;6.906;2023-05-10T06:56:57;17.57;;;14.80;;
18716;SDS011;9487;50.892;6.906;2023-05-10T06:59:23;16.07;;;13.50;;
18716;SDS011;9487;50.892;6.906;2023-05-10T07:01:50;16.73;;;14.57;;
18716;SDS011;9487;50.892;6.906;2023-05-10T07:04:17;19.10;;;14.90;;
18716;SDS011;9487;50.892;6.906;2023-05-10T07:06:44;19.67;;;14.17;;
18716;SDS011;9487;50.892;6.906;2023-05-10T07:09:12;18.23;;;15.10;;
18716;SDS011;9487;50.892;6.906;2023-05-10T07:11:39;18.60;;;14.40;;
18716;SDS011;9487;50.892;6.906;2023-05-10T07:14:06;17.73;;;15.73;;
18716;SDS011;9487;50.892;6.906;2023-05-10T07:16:33;19.80;;;15.57;;
18716;SDS011;9487;50.892;6.906;2023-05-10T07:19:00;19.40;;;14.83;;
18716;SDS011;9487;50.892;6.906;2023-05-10T07:21:27;18.70;;;15.70;;
18716;SDS011;9487;50.892;6.906;2023-05-10T07:23:54;20.47;;;15.13;;
18716;SDS011;9487;50.892;6.906;2023-05-10T07:26:23;17.77;;;14.63;;
18716;SDS011;9487;50.892;6.906;2023-05-10T07:28:50;18.60;;;14.60;;
18716;SDS011;9487;50.892;6.906;2023-05-10T07:31:17;18.00;;;14.23;;
18716;SDS011;9487;50.892;6.906;2023-05-10T07:33:44;17.50;;;13.50;;
18716;SDS011;9487;50.892;6.906;2023-05-10T07:36:11;20.67;;;14.37;;
18716;SDS011;9487;50.892;6.906;2023-05-10T07:38:38;18.20;;;13.63;;
18716;SDS011;9487;50.892;6.906;2023-05-10T07:41:05;18.20;;;14.23;;
18716;SDS011;9487;50.892;6.906;2023-05-10T07:43:33;18.53;;;13.47;;
18716;SDS011;9487;50.892;6.906;2023-05-10T07:46:00;19.23;;;14.03;;
18716;SDS011;9487;50.892;6.906;2023-05-10T07:48:27;20.47;;;14.53;;
18716;SDS011;9487;50.892;6.906;2023-05-10T07:50:54;16.87;;;13.30;;
18716;SDS011;9487;50.892;6.906;2023-05-10T07:53:21;16.40;;;12.70;;
18716;SDS011;9487;50.892;6.906;2023-05-10T07:55:49;19.07;;;12.67;;
18716;SDS011;9487;50.892;6.906;2023-05-10T07:58:16;16.03;;;12.10;;
18716;SDS011;9487;50.892;6.906;2023-05-10T08:00:45;13.30;;;11.07;;
18716;SDS011;9487;50.892;6.906;2023-05-10T08:03:11;15.03;;;11.30;;
18716;SDS011;9487;50.892;6.906;2023-05-10T08:05:38;14.52;;;11.80;;
18716;SDS011;9487;50.892;6.906;2023-05-10T08:08:05;15.47;;;10.43;;
18716;SDS011;9487;50.892;6.906;2023-05-10T08:10:32;10.93;;;9.30;;
18716;SDS011;9487;50.892;6.906;2023-05-10T08:12:59;10.13;;;8.17;;
18716;SDS011;9487;50.892;6.906;2023-05-10T08:15:25;9.90;;;8.33;;
18716;SDS011;9487;50.892;6.906;2023-05-10T08:17:54;13.13;;;8.47;;
18716;SDS011;9487;50.892;6.906;2023-05-10T08:20:21;11.93;;;8.00;;
18716;SDS011;9487;50.892;6.906;2023-05-10T08:22:48;9.27;;;7.10;;
18716;SDS011;9487;50.892;6.906;2023-05-10T08:25:15;9.47;;;7.30;;
18716;SDS011;9487;50.892;6.906;2023-05-10T08:27:42;7.77;;;6.80;;
18716;SDS011;9487;50.892;6.906;2023-05-10T08:30:09;6.37;;;5.63;;
18716;SDS011;9487;50.892;6.906;2023-05-10T08:32:37;7.40;;;5.90;;
18716;SDS011;9487;50.892;6.906;2023-05-10T08:35:05;7.73;;;5.97;;
18716;SDS011;9487;50.892;6.906;2023-05-10T08:37:32;8.33;;;6.40;;
18716;SDS011;9487;50.892;6.906;2023-05-10T08:39:59;7.90;;;5.97;;
18716;SDS011;9487;50.892;6.906;2023-05-10T08:42:27;6.47;;;5.87;;
18716;SDS011;9487;50.892;6.906;2023-05-10T08:44:57;6.10;;;5.50;;
18716;SDS011;9487;50.892;6.906;2023-05-10T08:47:25;7.63;;;6.47;;
18716;SDS011;9487;50.892;6.906;2023-05-10T08:49:52;7.63;;;6.50;;
18716;SDS011;9487;50.892;6.906;2023-05-10T08:52:22;6.40;;;5.70;;
18716;SDS011;9487;50.892;6.906;2023-05-10T08:54:51;7.67;;;6.20;;
18716;SDS011;9487;50.892;6.906;2023-05-10T08:57:18;6.47;;;5.87;;
18716;SDS011;9487;50.892;6.906;2023-05-10T08:59:45;6.47;;;5.80;;
18716;SDS011;9487;50.892;6.906;2023-05-10T09:02:12;6.37;;;5.77;;
18716;SDS011;9487;50.892;6.906;2023-05-10T09:04:40;5.53;;;5.00;;
18716;SDS011;9487;50.892;6.906;2023-05-10T09:07:07;7.83;;;5.50;;
18716;SDS011;9487;50.892;6.906;2023-05-10T09:09:35;7.00;;;5.57;;
18716;SDS011;9487;50.892;6.906;2023-05-10T09:12:03;7.57;;;5.93;;
18716;SDS011;9487;50.892;6.906;2023-05-10T09:14:31;6.90;;;5.20;;
18716;SDS011;9487;50.892;6.906;2023-05-10T09:17:01;6.37;;;5.20;;
18716;SDS011;9487;50.892;6.906;2023-05-10T09:19:28;4.93;;;4.40;;
18716;SDS011;9487;50.892;6.906;2023-05-10T09:21:55;5.80;;;4.47;;
18716;SDS011;9487;50.892;6.906;2023-05-10T09:24:24;4.73;;;4.30;;
18716;SDS011;9487;50.892;6.906;2023-05-10T09:26:54;4.53;;;4.07;;
18716;SDS011;9487;50.892;6.906;2023-05-10T09:29:23;3.40;;;3.10;;
18716;SDS011;9487;50.892;6.906;2023-05-10T09:31:51;4.03;;;3.63;;
18716;SDS011;9487;50.892;6.906;2023-05-10T09:34:20;3.83;;;3.13;;
18716;SDS011;9487;50.892;6.906;2023-05-10T09:36:54;5.47;;;3.80;;
18716;SDS011;9487;50.892;6.906;2023-05-10T09:39:29;8.50;;;6.93;;
18716;SDS011;9487;50.892;6.906;2023-05-10T09:41:59;8.70;;;6.67;;
18716;SDS011;9487;50.892;6.906;2023-05-10T09:44:28;7.07;;;6.07;;
18716;SDS011;9487;50.892;6.906;2023-05-10T09:46:56;9.57;;;7.53;;
18716;SDS011;9487;50.892;6.906;2023-05-10T09:49:23;9.23;;;7.57;;
18716;SDS011;9487;50.892;6.906;2023-05-10T09:51:59;14.13;;;10.13;;
18716;SDS011;9487;50.892;6.906;2023-05-10T09:54:28;13.77;;;10.20;;
18716;SDS011;9487;50.892;6.906;2023-05-10T09:56:55;14.73;;;11.17;;
18716;SDS011;9487;50.892;6.906;2023-05-10T09:59:24;17.37;;;12.20;;
18716;SDS011;9487;50.892;6.906;2023-05-10T10:01:52;15.20;;;11.17;;
18716;SDS011;9487;50.892;6.906;2023-05-10T10:04:21;12.70;;;10.30;;
18716;SDS011;9487;50.892;6.906;2023-05-10T10:06:58;10.87;;;8.97;;
18716;SDS011;9487;50.892;6.906;2023-05-10T10:09:26;11.20;;;8.27;;
18716;SDS011;9487;50.892;6.906;2023-05-10T10:11:53;11.63;;;9.60;;
18716;SDS011;9487;50.892;6.906;2023-05-10T10:14:21;12.13;;;9.80;;
18716;SDS011;9487;50.892;6.906;2023-05-10T10:16:50;9.73;;;8.40;;
18716;SDS011;9487;50.892;6.906;2023-05-10T10:19:17;9.20;;;7.63;;
18716;SDS011;9487;50.892;6.906;2023-05-10T10:21:44;9.87;;;7.63;;
18716;SDS011;9487;50.892;6.906;2023-05-10T10:24:11;10.87;;;8.27;;
18716;SDS011;9487;50.892;6.906;2023-05-10T10:26:38;9.63;;;8.33;;
18716;SDS011;9487;50.892;6.906;2023-05-10T10:29:09;10.47;;;9.27;;
18716;SDS011;9487;50.892;6.906;2023-05-10T10:31:46;13.07;;;9.53;;
18716;SDS011;9487;50.892;6.906;2023-05-10T10:34:25;13.80;;;9.60;;
18716;SDS011;9487;50.892;6.906;2023-05-10T10:36:53;10.67;;;7.70;;
18716;SDS011;9487;50.892;6.906;2023-05-10T10:39:21;12.20;;;9.13;;
18716;SDS011;9487;50.892;6.906;2023-05-10T10:41:50;10.30;;;8.23;;
18716;SDS011;9487;50.892;6.906;2023-05-10T10:44:25;10.07;;;7.87;;
18716;SDS011;9487;50.892;6.906;2023-05-10T10:47:01;9.83;;;8.33;;
18716;SDS011;9487;50.892;6.906;2023-05-10T10:49:32;10.27;;;7.67;;
18716;SDS011;9487;50.892;6.906;2023-05-10T10:52:12;7.60;;;6.80;;
18716;SDS011;9487;50.892;6.906;2023-05-10T10:54:40;9.53;;;7.37;;
18716;SDS011;9487;50.892;6.906;2023-05-10T10:57:10;8.20;;;7.07;;
18716;SDS011;9487;50.892;6.906;2023-05-10T10:59:41;7.60;;;6.80;;
18716;SDS011;9487;50.892;6.906;2023-05-10T11:02:09;8.07;;;6.80;;
18716;SDS011;9487;50.892;6.906;2023-05-10T11:04:43;7.23;;;5.90;;
18716;SDS011;9487;50.892;6.906;2023-05-10T11:07:18;6.97;;;5.17;;
18716;SDS011;9487;50.892;6.906;2023-05-10T11:09:46;6.70;;;5.63;;
18716;SDS011;9487;50.892;6.906;2023-05-10T11:12:13;5.70;;;5.10;;
18716;SDS011;9487;50.892;6.906;2023-05-10T11:14:40;7.00;;;6.13;;
18716;SDS011;9487;50.892;6.906;2023-05-10T11:17:22;5.30;;;4.43;;
18716;SDS011;9487;50.892;6.906;2023-05-10T11:20:07;5.57;;;4.43;;
18716;SDS011;9487;50.892;6.906;2023-05-10T11:22:48;4.03;;;3.63;;
18716;SDS011;9487;50.892;6.906;2023-05-10T11:25:16;4.30;;;3.90;;
18716;SDS011;9487;50.892;6.906;2023-05-10T11:27:43;4.87;;;3.90;;
18716;SDS011;9487;50.892;6.906;2023-05-10T11:30:11;4.10;;;3.70;;
18716;SDS011;9487;50.892;6.906;2023-05-10T11:32:39;3.60;;;3.20;;
18716;SDS011;9487;50.892;6.906;2023-05-10T11:35:08;4.13;;;3.73;;
18716;SDS011;9487;50.892;6.906;2023-05-10T11:37:38;3.73;;;3.43;;
18716;SDS011;9487;50.892;6.906;2023-05-10T11:40:09;4.53;;;4.13;;
18716;SDS011;9487;50.892;6.906;2023-05-10T11:42:36;4.33;;;3.70;;
18716;SDS011;9487;50.892;6.906;2023-05-10T11:45:04;4.37;;;3.50;;
18716;SDS011;9487;50.892;6.906;2023-05-10T11:47:32;3.30;;;2.70;;
18716;SDS011;9487;50.892;6.906;2023-05-10T11:50:00;3.73;;;3.30;;
18716;SDS011;9487;50.892;6.906;2023-05-10T11:52:29;3.37;;;2.87;;
18716;SDS011;9487;50.892;6.906;2023-05-10T11:55:01;2.87;;;2.67;;
18716;SDS011;9487;50.892;6.906;2023-05-10T11:57:28;2.70;;;2.50;;
18716;SDS011;9487;50.892;6.906;2023-05-10T11:59:56;2.93;;;2.63;;
18716;SDS011;9487;50.892;6.906;2023-05-10T12:02:23;3.40;;;2.73;;
18716;SDS011;9487;50.892;6.906;2023-05-10T12:04:50;2.57;;;2.37;;
18716;SDS011;9487;50.892;6.906;2023-05-10T12:07:17;2.67;;;2.20;;
18716;SDS011;9487;50.892;6.906;2023-05-10T12:09:55;2.80;;;2.50;;
18716;SDS011;9487;50.892;6.906;2023-05-10T12:12:34;3.13;;;2.10;;
18716;SDS011;9487;50.892;6.906;2023-05-10T12:15:03;2.40;;;2.17;;
18716;SDS011;9487;50.892;6.906;2023-05-10T12:17:31;3.03;;;2.20;;
18716;SDS011;9487;50.892;6.906;2023-05-10T12:19:58;2.10;;;2.00;;
18716;SDS011;9487;50.892;6.906;2023-05-10T12:22:38;2.90;;;2.70;;
18716;SDS011;9487;50.892;6.906;2023-05-10T12:25:07;2.30;;;2.00;;
18716;SDS011;9487;50.892;6.906;2023-05-10T12:27:35;1.77;;;1.47;;
18716;SDS011;9487;50.892;6.906;2023-05-10T12:30:02;2.17;;;1.43;;
18716;SDS011;9487;50.892;6.906;2023-05-10T12:32:39;2.70;;;1.57;;
18716;SDS011;9487;50.892;6.906;2023-05-10T12:35:06;2.00;;;1.60;;
18716;SDS011;9487;50.892;6.906;2023-05-10T12:37:34;1.30;;;1.20;;
18716;SDS011;9487;50.892;6.906;2023-05-10T12:40:05;2.47;;;1.50;;
18716;SDS011;9487;50.892;6.906;2023-05-10T12:42:36;1.70;;;1.60;;
18716;SDS011;9487;50.892;6.906;2023-05-10T12:45:03;3.07;;;2.07;;
18716;SDS011;9487;50.892;6.906;2023-05-10T12:47:31;2.40;;;1.70;;
18716;SDS011;9487;50.892;6.906;2023-05-10T12:49:59;2.10;;;1.77;;
18716;SDS011;9487;50.892;6.906;2023-05-10T12:52:26;2.70;;;1.50;;
18716;SDS011;9487;50.892;6.906;2023-05-10T12:54:53;1.20;;;1.10;;
18716;SDS011;9487;50.892;6.906;2023-05-10T12:57:22;1.50;;;1.40;;
18716;SDS011;9487;50.892;6.906;2023-05-10T12:59:49;1.80;;;1.57;;
18716;SDS011;9487;50.892;6.906;2023-05-10T13:02:16;2.30;;;1.80;;
18716;SDS011;9487;50.892;6.906;2023-05-10T13:04:48;2.40;;;1.90;;
18716;SDS011;9487;50.892;6.906;2023-05-10T13:07:15;3.30;;;1.97;;
18716;SDS011;9487;50.892;6.906;2023-05-10T13:09:41;1.97;;;1.77;;
18716;SDS011;9487;50.892;6.906;2023-05-10T13:12:08;2.70;;;2.00;;
18716;SDS011;9487;50.892;6.906;2023-05-10T13:14:37;4.40;;;2.03;;
18716;SDS011;9487;50.892;6.906;2023-05-10T13:17:05;1.70;;;1.60;;
18716;SDS011;9487;50.892;6.906;2023-05-10T13:19:32;2.60;;;2.10;;
18716;SDS011;9487;50.892;6.906;2023-05-10T13:21:59;2.83;;;2.20;;
18716;SDS011;9487;50.892;6.906;2023-05-10T13:24:25;1.80;;;1.70;;
18716;SDS011;9487;50.892;6.906;2023-05-10T13:26:52;1.70;;;1.60;;
18716;SDS011;9487;50.892;6.906;2023-05-10T13:29:19;2.73;;;2.00;;
18716;SDS011;9487;50.892;6.906;2023-05-10T13:31:48;2.10;;;1.80;;
18716;SDS011;9487;50.892;6.906;2023-05-10T13:34:15;1.93;;;1.47;;
18716;SDS011;9487;50.892;6.906;2023-05-10T13:36:45;2.43;;;1.30;;
18716;SDS011;9487;50.892;6.906;2023-05-10T13:39:12;2.17;;;1.43;;
18716;SDS011;9487;50.892;6.906;2023-05-10T13:41:39;1.73;;;1.40;;
18716;SDS011;9487;50.892;6.906;2023-05-10T13:44:06;3.47;;;1.50;;
18716;SDS011;9487;50.892;6.906;2023-05-10T13:46:33;1.20;;;1.10;;
18716;SDS011;9487;50.892;6.906;2023-05-10T13:49:01;2.70;;;1.30;;
18716;SDS011;9487;50.892;6.906;2023-05-10T13:51:29;1.67;;;1.30;;
18716;SDS011;9487;50.892;6.906;2023-05-10T13:53:56;1.40;;;1.30;;
18716;SDS011;9487;50.892;6.906;2023-05-10T13:56:23;2.80;;;1.40;;
18716;SDS011;9487;50.892;6.906;2023-05-10T13:58:50;1.47;;;1.10;;
18716;SDS011;9487;50.892;6.906;2023-05-10T14:01:17;1.27;;;1.17;;
18716;SDS011;9487;50.892;6.906;2023-05-10T14:03:44;2.30;;;1.33;;
18716;SDS011;9487;50.892;6.906;2023-05-10T14:06:12;3.03;;;1.40;;
18716;SDS011;9487;50.892;6.906;2023-05-10T14:08:39;1.43;;;1.33;;
18716;SDS011;9487;50.892;6.906;2023-05-10T14:11:06;2.03;;;1.40;;
18716;SDS011;9487;50.892;6.906;2023-05-10T14:13:33;1.30;;;1.20;;
18716;SDS011;9487;50.892;6.906;2023-05-10T14:16:00;1.93;;;1.10;;
18716;SDS011;9487;50.892;6.906;2023-05-10T14:18:27;2.10;;;1.03;;
18716;SDS011;9487;50.892;6.906;2023-05-10T14:20:54;2.03;;;1.20;;
18716;SDS011;9487;50.892;6.906;2023-05-10T14:23:22;1.23;;;1.10;;
18716;SDS011;9487;50.892;6.906;2023-05-10T14:25:50;1.90;;;1.30;;
18716;SDS011;9487;50.892;6.906;2023-05-10T14:28:18;1.70;;;1.50;;
18716;SDS011;9487;50.892;6.906;2023-05-10T14:30:45;1.67;;;1.43;;
18716;SDS011;9487;50.892;6.906;2023-05-10T14:33:12;2.00;;;1.40;;
18716;SDS011;9487;50.892;6.906;2023-05-10T14:35:39;2.47;;;1.73;;
18716;SDS011;9487;50.892;6.906;2023-05-10T14:38:06;2.13;;;1.70;;
18716;SDS011;9487;50.892;6.906;2023-05-10T14:40:34;2.37;;;1.70;;
18716;SDS011;9487;50.892;6.906;2023-05-10T14:43:01;1.70;;;1.53;;
18716;SDS011;9487;50.892;6.906;2023-05-10T14:45:28;2.20;;;1.50;;
18716;SDS011;9487;50.892;6.906;2023-05-10T14:47:55;3.33;;;1.70;;
18716;SDS011;9487;50.892;6.906;2023-05-10T14:50:22;1.30;;;1.20;;
18716;SDS011;9487;50.892;6.906;2023-05-10T14:52:49;1.40;;;1.30;;
18716;SDS011;9487;50.892;6.906;2023-05-10T14:55:16;2.30;;;1.40;;
18716;SDS011;9487;50.892;6.906;2023-05-10T14:57:44;2.17;;;1.20;;
18716;SDS011;9487;50.892;6.906;2023-05-10T15:00:12;1.37;;;1.27;;
18716;SDS011;9487;50.892;6.906;2023-05-10T15:02:41;1.40;;;1.17;;